createdAt,value
2022-12-31T00:00:25.237Z,5.10
2022-12-31T00:02:57.203Z,5.10
2022-12-31T00:05:35.166Z,5.00
2022-12-31T00:08:09.368Z,5.10
2022-12-31T00:10:44.052Z,5.10
2022-12-31T00:13:16.096Z,5.10
2022-12-31T00:15:47.888Z,5.00
2022-12-31T00:18:19.639Z,5.00
2022-12-31T00:20:51.485Z,5.00
2022-12-31T00:23:25.621Z,5.00
2022-12-31T00:26:01.955Z,5.00
2022-12-31T00:28:34.468Z,5.00
2022-12-31T00:31:14.190Z,5.00
2022-12-31T00:33:48.480Z,5.10
2022-12-31T00:36:26.307Z,5.10
2022-12-31T00:38:58.891Z,5.10
2022-12-31T00:41:31.233Z,5.20
2022-12-31T00:44:03.199Z,5.20
2022-12-31T00:49:05.874Z,5.20
2022-12-31T00:51:37.770Z,5.20
2022-12-31T00:54:10.237Z,5.20
2022-12-31T00:56:42.133Z,5.20
2022-12-31T00:59:16.318Z,5.20
2022-12-31T01:01:48.273Z,5.20
2022-12-31T01:04:20.485Z,5.20
2022-12-31T01:06:52.311Z,5.30
2022-12-31T01:09:24.067Z,5.30
2022-12-31T01:11:55.932Z,5.30
2022-12-31T01:14:27.754Z,5.30
2022-12-31T01:17:02.028Z,5.30
2022-12-31T01:19:33.802Z,5.30
2022-12-31T01:22:05.656Z,5.30
2022-12-31T01:24:37.437Z,5.30
2022-12-31T01:27:09.300Z,5.30
2022-12-31T01:29:41.067Z,5.30
2022-12-31T01:32:12.900Z,5.40
2022-12-31T01:34:44.729Z,5.40
2022-12-31T01:37:16.563Z,5.40
2022-12-31T01:39:48.514Z,5.40
2022-12-31T01:42:20.418Z,5.50
2022-12-31T01:44:55.296Z,5.50
2022-12-31T01:47:38.123Z,5.50
2022-12-31T01:50:16.023Z,5.50
2022-12-31T01:52:50.050Z,5.50
2022-12-31T01:55:28.818Z,5.50
2022-12-31T01:58:12.008Z,5.50
2022-12-31T02:00:44.232Z,5.50
2022-12-31T02:03:16.091Z,5.50
2022-12-31T02:05:50.989Z,5.50
2022-12-31T02:08:22.819Z,5.50
2022-12-31T02:10:54.554Z,5.50
2022-12-31T02:13:26.433Z,5.50
2022-12-31T02:16:09.344Z,5.60
2022-12-31T02:18:56.378Z,5.60
2022-12-31T02:21:30.531Z,5.60
2022-12-31T02:24:10.206Z,5.60
2022-12-31T02:26:44.996Z,5.60
2022-12-31T02:29:16.770Z,5.60
2022-12-31T02:31:52.723Z,5.50
2022-12-31T02:34:30.565Z,5.50
2022-12-31T02:37:04.630Z,5.50
2022-12-31T02:39:36.638Z,5.50
2022-12-31T02:42:09.726Z,5.50
2022-12-31T02:44:42.388Z,5.50
2022-12-31T02:47:32.746Z,5.50
2022-12-31T02:50:22.958Z,5.60
2022-12-31T02:53:15.723Z,5.60
2022-12-31T02:56:08.034Z,5.60
2022-12-31T02:58:58.398Z,5.60
2022-12-31T03:01:52.063Z,5.60
2022-12-31T03:04:32.729Z,5.70
2022-12-31T03:07:04.526Z,5.70
2022-12-31T03:09:36.589Z,5.80
2022-12-31T03:12:28.278Z,5.80
2022-12-31T03:15:06.715Z,5.90
2022-12-31T03:17:38.606Z,5.90
2022-12-31T03:20:31.502Z,6.00
2022-12-31T03:23:07.845Z,6.00
2022-12-31T03:25:41.923Z,6.10
2022-12-31T03:28:15.346Z,6.10
2022-12-31T03:30:49.582Z,6.20
2022-12-31T03:33:22.039Z,6.30
2022-12-31T03:35:53.852Z,6.30
2022-12-31T03:38:25.674Z,6.30
2022-12-31T03:40:59.927Z,6.30
2022-12-31T03:43:31.920Z,6.30
2022-12-31T03:46:05.838Z,6.30
2022-12-31T03:48:37.751Z,6.30
2022-12-31T03:51:09.572Z,6.20
2022-12-31T03:53:41.375Z,6.30
2022-12-31T03:56:13.150Z,6.20
2022-12-31T03:58:47.075Z,6.30
2022-12-31T04:01:19.672Z,6.30
2022-12-31T04:03:51.554Z,6.30
2022-12-31T04:06:23.299Z,6.30
2022-12-31T04:08:55.130Z,6.30
2022-12-31T04:11:26.890Z,6.30
2022-12-31T04:14:01.575Z,6.30
2022-12-31T04:16:33.420Z,6.20
2022-12-31T04:19:07.999Z,6.20
2022-12-31T04:21:39.839Z,6.20
2022-12-31T04:24:11.650Z,6.20
2022-12-31T04:26:45.510Z,6.10
2022-12-31T04:29:17.297Z,6.20
2022-12-31T04:31:49.105Z,6.10
2022-12-31T04:34:23.371Z,6.10
2022-12-31T04:36:55.240Z,6.10
2022-12-31T04:39:27.250Z,6.20
2022-12-31T04:42:01.088Z,6.20
2022-12-31T04:44:35.021Z,6.20
2022-12-31T04:47:06.828Z,6.20
2022-12-31T04:49:38.682Z,6.20
2022-12-31T04:52:10.506Z,6.20
2022-12-31T04:54:42.331Z,6.30
2022-12-31T04:57:14.159Z,6.30
2022-12-31T04:59:45.979Z,6.30
2022-12-31T05:02:18.001Z,6.30
2022-12-31T05:04:49.995Z,6.40
2022-12-31T05:07:21.765Z,6.40
2022-12-31T05:09:53.570Z,6.40
2022-12-31T05:12:25.338Z,6.40
2022-12-31T05:14:59.539Z,6.40
2022-12-31T05:17:31.367Z,6.40
2022-12-31T05:20:03.288Z,6.40
2022-12-31T05:22:35.069Z,6.50
2022-12-31T05:25:07.160Z,6.50
2022-12-31T05:27:41.389Z,6.50
2022-12-31T05:30:13.498Z,6.50
2022-12-31T05:32:45.591Z,6.60
2022-12-31T05:35:19.995Z,6.60
2022-12-31T05:37:51.774Z,6.60
2022-12-31T05:40:23.597Z,6.60
2022-12-31T05:42:55.489Z,6.60
2022-12-31T05:45:31.007Z,6.60
2022-12-31T05:48:03.189Z,6.60
2022-12-31T05:50:35.032Z,6.70
2022-12-31T05:53:06.820Z,6.70
2022-12-31T05:55:38.644Z,6.70
2022-12-31T05:58:10.366Z,6.70
2022-12-31T06:00:42.427Z,6.70
2022-12-31T06:03:14.350Z,6.80
2022-12-31T06:05:46.290Z,6.80
2022-12-31T06:08:18.053Z,6.80
2022-12-31T06:10:49.936Z,6.80
2022-12-31T06:13:21.758Z,6.80
2022-12-31T06:15:53.670Z,6.80
2022-12-31T06:18:25.464Z,6.90
2022-12-31T06:21:00.769Z,6.90
2022-12-31T06:23:32.514Z,6.90
2022-12-31T06:26:07.046Z,6.90
2022-12-31T06:28:39.094Z,6.90
2022-12-31T06:31:12.341Z,6.90
2022-12-31T06:33:44.295Z,6.90
2022-12-31T06:36:16.316Z,6.90
2022-12-31T06:38:48.774Z,6.90
2022-12-31T06:41:20.596Z,6.90
2022-12-31T06:43:52.354Z,6.90
2022-12-31T06:46:26.287Z,7.00
2022-12-31T06:48:58.045Z,7.00
2022-12-31T06:51:29.844Z,7.00
2022-12-31T06:54:01.683Z,7.00
2022-12-31T06:56:35.997Z,7.00
2022-12-31T06:59:17.406Z,7.00
2022-12-31T07:01:49.238Z,7.10
2022-12-31T07:04:39.935Z,7.10
2022-12-31T07:07:11.697Z,7.10
2022-12-31T07:10:06.685Z,7.20
2022-12-31T07:12:53.810Z,7.20
2022-12-31T07:15:31.313Z,7.20
2022-12-31T07:18:06.169Z,7.30
2022-12-31T07:20:38.257Z,7.30
2022-12-31T07:23:10.216Z,7.30
2022-12-31T07:25:52.509Z,7.30
2022-12-31T07:28:40.483Z,7.30
2022-12-31T07:31:18.303Z,7.30
2022-12-31T07:34:06.150Z,7.40
2022-12-31T07:36:49.750Z,7.40
2022-12-31T07:39:39.769Z,7.40
2022-12-31T07:42:17.000Z,7.40
2022-12-31T07:44:57.918Z,7.50
2022-12-31T07:47:30.130Z,7.50
2022-12-31T07:50:02.205Z,7.50
2022-12-31T07:52:34.078Z,7.50
2022-12-31T07:55:06.177Z,7.60
2022-12-31T07:57:59.590Z,7.60
2022-12-31T08:00:31.528Z,7.60
2022-12-31T08:03:11.765Z,7.60
2022-12-31T08:05:43.574Z,7.70
2022-12-31T08:08:34.083Z,7.70
2022-12-31T08:11:08.688Z,7.70
2022-12-31T08:13:41.632Z,7.80
2022-12-31T08:16:14.194Z,7.80
2022-12-31T08:18:46.106Z,7.80
2022-12-31T08:21:35.560Z,7.80
2022-12-31T08:24:07.351Z,7.90
2022-12-31T08:26:53.326Z,7.90
2022-12-31T08:29:39.233Z,7.90
2022-12-31T08:32:11.114Z,7.90
2022-12-31T08:34:42.893Z,8.00
2022-12-31T08:37:32.053Z,8.00
2022-12-31T08:40:03.813Z,8.00
2022-12-31T08:42:56.493Z,8.10
2022-12-31T08:45:54.700Z,8.10
2022-12-31T08:48:32.550Z,8.10
2022-12-31T08:51:04.643Z,8.10
2022-12-31T08:53:36.589Z,8.10
2022-12-31T08:56:13.211Z,8.10
2022-12-31T08:58:54.354Z,8.10
2022-12-31T09:01:28.186Z,8.20
2022-12-31T09:04:03.112Z,8.20
2022-12-31T09:06:42.475Z,8.20
2022-12-31T09:09:14.268Z,8.20
2022-12-31T09:11:46.019Z,8.20
2022-12-31T09:14:17.897Z,8.30
2022-12-31T09:17:02.024Z,8.30
2022-12-31T09:19:36.387Z,8.30
2022-12-31T09:22:10.066Z,8.30
2022-12-31T09:24:41.996Z,8.40
2022-12-31T09:27:23.854Z,8.40
2022-12-31T09:29:58.930Z,8.40
2022-12-31T09:32:49.333Z,8.40
2022-12-31T09:35:33.523Z,8.50
2022-12-31T09:38:20.852Z,8.40
2022-12-31T09:41:04.797Z,8.50
2022-12-31T09:43:42.352Z,8.50
2022-12-31T09:46:17.236Z,8.50
2022-12-31T09:48:51.418Z,8.50
2022-12-31T09:51:43.577Z,8.50
2022-12-31T09:54:29.752Z,8.50
2022-12-31T09:57:10.525Z,8.50
2022-12-31T10:00:00.756Z,8.50
2022-12-31T10:02:46.114Z,8.50
2022-12-31T10:05:30.507Z,8.60
2022-12-31T10:08:05.077Z,8.60
2022-12-31T10:10:57.122Z,8.60
2022-12-31T10:13:28.909Z,8.60
2022-12-31T10:16:15.825Z,8.60
2022-12-31T10:18:50.441Z,8.60
2022-12-31T10:21:37.693Z,8.60
2022-12-31T10:24:09.549Z,8.60
2022-12-31T10:26:53.053Z,8.60
2022-12-31T10:29:34.442Z,8.70
2022-12-31T10:32:12.321Z,8.60
2022-12-31T10:34:44.138Z,8.60
2022-12-31T10:37:20.213Z,8.70
2022-12-31T10:39:52.038Z,8.60
2022-12-31T10:42:42.198Z,8.60
2022-12-31T10:45:32.766Z,8.60
2022-12-31T10:48:22.187Z,8.60
2022-12-31T10:50:59.874Z,8.60
2022-12-31T10:53:31.619Z,8.50
2022-12-31T10:56:15.644Z,8.50
2022-12-31T10:58:47.405Z,8.50
2022-12-31T11:01:25.905Z,8.50
2022-12-31T11:04:09.189Z,8.50
2022-12-31T11:06:44.050Z,8.50
2022-12-31T11:09:43.118Z,8.50
2022-12-31T11:12:28.185Z,8.50
2022-12-31T11:15:02.082Z,8.50
2022-12-31T11:17:37.016Z,8.50
2022-12-31T11:20:27.207Z,8.50
2022-12-31T11:23:11.289Z,8.60
2022-12-31T11:26:01.920Z,8.50
2022-12-31T11:28:52.377Z,8.50
2022-12-31T11:31:33.061Z,8.50
2022-12-31T11:34:23.443Z,8.50
2022-12-31T11:37:20.194Z,8.50
2022-12-31T11:39:55.047Z,8.60
2022-12-31T11:42:38.888Z,8.60
2022-12-31T11:45:10.706Z,8.60
2022-12-31T11:48:29.568Z,8.60
2022-12-31T11:51:12.449Z,8.60
2022-12-31T11:54:02.334Z,8.60
2022-12-31T11:56:37.454Z,8.70
2022-12-31T11:59:18.851Z,8.70
2022-12-31T12:01:51.396Z,8.70
2022-12-31T12:04:25.509Z,8.70
2022-12-31T12:06:57.908Z,8.80
2022-12-31T12:09:31.358Z,8.80
2022-12-31T12:12:04.966Z,8.90
2022-12-31T12:14:40.912Z,8.90
2022-12-31T12:17:16.676Z,8.90
2022-12-31T12:19:53.909Z,9.00
2022-12-31T12:22:29.253Z,9.00
2022-12-31T12:25:07.656Z,9.00
2022-12-31T12:27:39.478Z,9.00
2022-12-31T12:30:24.856Z,9.00
2022-12-31T12:33:01.131Z,9.10
2022-12-31T12:35:34.193Z,9.10
2022-12-31T12:38:07.361Z,9.10
2022-12-31T12:40:39.418Z,9.10
2022-12-31T12:43:24.869Z,9.10
2022-12-31T12:46:00.111Z,9.10
2022-12-31T12:48:42.243Z,9.20
2022-12-31T12:51:32.990Z,9.20
2022-12-31T12:54:19.953Z,9.30
2022-12-31T12:56:53.810Z,9.30
2022-12-31T12:59:44.304Z,9.30
2022-12-31T13:02:25.272Z,9.30
2022-12-31T13:04:57.117Z,9.40
2022-12-31T13:07:40.814Z,9.40
2022-12-31T13:10:15.578Z,9.40
2022-12-31T13:16:25.434Z,9.50
2022-12-31T13:19:06.131Z,9.50
2022-12-31T13:22:02.229Z,9.50
2022-12-31T13:24:57.150Z,9.60
2022-12-31T13:27:39.643Z,9.60
2022-12-31T13:30:15.958Z,9.70
2022-12-31T13:32:57.273Z,9.70
2022-12-31T13:35:43.267Z,9.70
2022-12-31T13:38:20.035Z,9.80
2022-12-31T13:40:51.826Z,9.80
2022-12-31T13:43:35.852Z,9.90
2022-12-31T13:46:10.783Z,9.90
2022-12-31T13:48:46.898Z,10.00
2022-12-31T13:51:24.253Z,10.00
2022-12-31T13:54:05.303Z,10.00
2022-12-31T13:56:40.239Z,10.10
2022-12-31T13:59:11.982Z,10.10
2022-12-31T14:01:52.369Z,10.20
2022-12-31T14:04:36.829Z,10.20
2022-12-31T14:07:14.169Z,10.20
2022-12-31T14:09:46.733Z,10.20
2022-12-31T14:12:21.548Z,10.20
2022-12-31T14:14:59.410Z,10.30
2022-12-31T14:17:47.551Z,10.30
2022-12-31T14:20:19.387Z,10.30
2022-12-31T14:23:10.140Z,10.40
2022-12-31T14:25:46.916Z,10.50
2022-12-31T14:28:24.057Z,10.50
2022-12-31T14:31:11.534Z,10.50
2022-12-31T14:33:49.580Z,10.50
2022-12-31T14:36:26.610Z,10.60
2022-12-31T14:39:10.073Z,10.60
2022-12-31T14:41:54.144Z,10.70
2022-12-31T14:44:25.910Z,10.70
2022-12-31T14:47:00.725Z,10.80
2022-12-31T14:49:50.953Z,10.70
2022-12-31T14:52:25.212Z,10.80
2022-12-31T14:54:57.959Z,10.80
2022-12-31T14:58:01.658Z,10.80
2022-12-31T15:00:33.652Z,10.90
2022-12-31T15:03:16.961Z,10.90
2022-12-31T15:05:52.864Z,10.80
2022-12-31T15:08:30.952Z,10.90
2022-12-31T15:11:17.941Z,10.80
2022-12-31T15:13:52.446Z,10.90
2022-12-31T15:16:24.233Z,10.90
2022-12-31T15:19:05.311Z,10.90
2022-12-31T15:21:41.673Z,10.90
2022-12-31T15:24:19.028Z,11.00
2022-12-31T15:27:03.853Z,11.00
2022-12-31T15:29:41.731Z,10.90
2022-12-31T15:32:18.975Z,11.00
2022-12-31T15:35:00.610Z,11.00
2022-12-31T15:37:32.386Z,11.00
2022-12-31T15:40:16.132Z,11.00
2022-12-31T15:42:55.575Z,11.00
2022-12-31T15:45:36.700Z,11.10
2022-12-31T15:48:16.411Z,11.10
2022-12-31T15:50:51.371Z,11.20
2022-12-31T15:53:34.608Z,11.10
2022-12-31T15:56:07.622Z,11.20
2022-12-31T15:58:39.745Z,11.20
2022-12-31T16:01:20.955Z,11.20
2022-12-31T16:04:15.207Z,11.20
2022-12-31T16:06:50.959Z,11.30
2022-12-31T16:09:28.681Z,11.30
2022-12-31T16:12:01.363Z,11.40
2022-12-31T16:14:40.757Z,11.50
2022-12-31T16:17:23.447Z,11.50
2022-12-31T16:19:55.586Z,11.50
2022-12-31T16:22:30.524Z,11.60
2022-12-31T16:27:55.038Z,11.60
2022-12-31T16:30:36.079Z,11.70
2022-12-31T16:33:12.843Z,11.70
2022-12-31T16:35:53.979Z,11.70
2022-12-31T16:38:36.784Z,11.70
2022-12-31T16:41:17.665Z,11.70
2022-12-31T16:43:49.869Z,11.70
2022-12-31T16:46:26.955Z,11.80
2022-12-31T16:49:00.422Z,11.80
2022-12-31T16:51:33.333Z,11.80
2022-12-31T16:54:05.331Z,11.90
2022-12-31T16:56:38.539Z,11.90
2022-12-31T16:59:24.097Z,11.90
2022-12-31T17:01:56.701Z,11.90
2022-12-31T17:04:28.786Z,11.90
2022-12-31T17:07:19.349Z,12.00
2022-12-31T17:10:01.261Z,12.00
2022-12-31T17:13:00.601Z,12.00
2022-12-31T17:15:29.795Z,12.00
2022-12-31T17:18:02.590Z,12.00
2022-12-31T17:20:34.728Z,12.00
2022-12-31T17:23:08.548Z,12.00
2022-12-31T17:25:40.377Z,12.00
2022-12-31T17:28:25.406Z,11.90
2022-12-31T17:31:01.471Z,11.90
2022-12-31T17:33:33.336Z,12.00
2022-12-31T17:36:23.811Z,11.90
2022-12-31T17:38:55.588Z,11.90
2022-12-31T17:41:27.962Z,11.90
2022-12-31T17:43:59.755Z,11.90
2022-12-31T17:46:36.224Z,11.90
2022-12-31T17:49:10.417Z,11.90
2022-12-31T17:51:47.323Z,11.90
2022-12-31T17:54:22.895Z,12.00
2022-12-31T17:56:57.735Z,12.00
2022-12-31T17:59:30.536Z,12.00
2022-12-31T18:02:03.169Z,12.10
2022-12-31T18:04:35.073Z,12.20
2022-12-31T18:07:06.879Z,12.20
2022-12-31T18:09:38.630Z,12.30
2022-12-31T18:12:12.734Z,12.30
2022-12-31T18:14:45.156Z,12.30
2022-12-31T18:17:17.001Z,12.30
2022-12-31T18:20:05.610Z,12.40
2022-12-31T18:22:41.049Z,12.40
2022-12-31T18:25:20.531Z,12.30
2022-12-31T18:28:00.144Z,12.30
2022-12-31T18:30:34.631Z,12.20
2022-12-31T18:33:06.633Z,12.20
2022-12-31T18:36:08.357Z,12.20
2022-12-31T18:38:37.050Z,12.10
2022-12-31T18:41:15.590Z,12.10
2022-12-31T18:43:47.822Z,12.00
2022-12-31T18:46:22.064Z,12.00
2022-12-31T18:48:56.308Z,12.00
2022-12-31T18:51:32.491Z,12.00
2022-12-31T18:54:09.301Z,12.00
2022-12-31T18:56:47.036Z,12.00
2022-12-31T18:59:20.348Z,12.10
2022-12-31T19:01:52.367Z,12.10
2022-12-31T19:04:28.460Z,12.10
2022-12-31T19:07:00.717Z,12.10
2022-12-31T19:09:56.302Z,12.20
2022-12-31T19:12:29.415Z,12.20
2022-12-31T19:15:01.354Z,12.20
2022-12-31T19:17:33.310Z,12.20
2022-12-31T19:20:05.733Z,12.30
2022-12-31T19:22:38.024Z,12.30
2022-12-31T19:25:21.472Z,12.30
2022-12-31T19:27:53.270Z,12.30
2022-12-31T19:30:32.865Z,12.30
2022-12-31T19:33:04.797Z,12.20
2022-12-31T19:35:38.445Z,12.20
2022-12-31T19:38:19.089Z,12.20
2022-12-31T19:40:51.287Z,12.10
2022-12-31T19:43:24.499Z,12.10
2022-12-31T19:45:56.591Z,12.00
2022-12-31T19:48:33.060Z,12.00
2022-12-31T19:51:07.899Z,12.00
2022-12-31T19:53:39.789Z,12.00
2022-12-31T19:56:21.207Z,12.00
2022-12-31T19:58:54.043Z,12.10
2022-12-31T20:01:26.012Z,12.10
2022-12-31T20:03:57.949Z,12.10
2022-12-31T20:06:34.929Z,12.10
2022-12-31T20:09:09.321Z,12.10
2022-12-31T20:11:41.181Z,12.10
2022-12-31T20:14:18.536Z,12.10
2022-12-31T20:16:50.360Z,12.10
2022-12-31T20:19:22.215Z,12.10
2022-12-31T20:21:54.125Z,12.10
2022-12-31T20:24:28.392Z,12.00
2022-12-31T20:27:18.304Z,12.00
2022-12-31T20:29:52.539Z,12.00
2022-12-31T20:32:24.568Z,12.00
2022-12-31T20:34:56.451Z,11.90
2022-12-31T20:37:31.120Z,11.90
2022-12-31T20:40:03.087Z,11.90
2022-12-31T20:42:37.544Z,11.80
2022-12-31T20:45:10.601Z,11.80
2022-12-31T20:47:42.401Z,11.80
2022-12-31T20:50:18.095Z,11.80
2022-12-31T20:52:49.981Z,11.80
2022-12-31T20:55:21.906Z,11.70
2022-12-31T20:57:53.780Z,11.70
2022-12-31T21:00:25.599Z,11.70
2022-12-31T21:03:14.262Z,11.70
2022-12-31T21:05:54.957Z,11.80
2022-12-31T21:08:31.133Z,11.70
2022-12-31T21:11:26.905Z,11.70
2022-12-31T21:13:59.371Z,11.70
2022-12-31T21:16:31.898Z,11.70
2022-12-31T21:19:04.160Z,11.70
2022-12-31T21:21:36.405Z,11.70
2022-12-31T21:24:10.874Z,11.70
2022-12-31T21:26:42.696Z,11.70
2022-12-31T21:29:15.255Z,11.60
2022-12-31T21:31:48.195Z,11.60
2022-12-31T21:34:21.385Z,11.60
2022-12-31T21:36:53.396Z,11.60
2022-12-31T21:39:26.283Z,11.60
2022-12-31T21:41:59.469Z,11.60
2022-12-31T21:44:31.439Z,11.60
2022-12-31T21:47:42.521Z,11.60
2022-12-31T21:50:13.804Z,11.60
2022-12-31T21:52:45.614Z,11.50
2022-12-31T21:55:36.107Z,11.60
2022-12-31T21:58:27.743Z,11.50
2022-12-31T22:01:18.855Z,11.60
2022-12-31T22:03:51.128Z,11.60
2022-12-31T22:06:27.272Z,11.60
2022-12-31T22:08:59.064Z,11.60
2022-12-31T22:11:30.955Z,11.60
2022-12-31T22:14:02.767Z,11.60
2022-12-31T22:16:34.753Z,11.70
2022-12-31T22:19:06.639Z,11.70
2022-12-31T22:21:38.503Z,11.70
2022-12-31T22:24:13.902Z,11.70
2022-12-31T22:26:46.934Z,11.70
2022-12-31T22:29:19.853Z,11.80
2022-12-31T22:31:55.526Z,11.80
2022-12-31T22:34:29.916Z,11.80
2022-12-31T22:37:14.435Z,11.80
2022-12-31T22:39:57.177Z,11.80
2022-12-31T22:42:31.454Z,11.90
2022-12-31T22:45:04.311Z,11.90
2022-12-31T22:47:36.172Z,11.90
2022-12-31T22:50:10.628Z,11.90
2022-12-31T22:52:42.449Z,11.90
2022-12-31T22:55:14.801Z,12.00
2022-12-31T22:57:49.617Z,12.00
2022-12-31T23:00:29.779Z,12.00
2022-12-31T23:03:01.723Z,12.00
2022-12-31T23:05:36.429Z,12.00
2022-12-31T23:08:18.683Z,11.90
2022-12-31T23:11:00.996Z,11.90
2022-12-31T23:13:58.825Z,11.90
2022-12-31T23:16:52.038Z,11.90
2022-12-31T23:19:42.267Z,11.90
2022-12-31T23:22:33.480Z,11.90
2022-12-31T23:25:08.154Z,11.90
2022-12-31T23:27:39.955Z,11.90
2022-12-31T23:30:13.680Z,11.90
2022-12-31T23:32:45.596Z,11.90
2022-12-31T23:35:18.360Z,11.90
2022-12-31T23:37:54.705Z,11.90
2022-12-31T23:40:34.395Z,11.90
2022-12-31T23:43:09.481Z,11.90
2022-12-31T23:45:41.772Z,11.90
2022-12-31T23:48:13.867Z,12.00
2022-12-31T23:50:52.638Z,12.00
2022-12-31T23:53:25.437Z,12.10
2022-12-31T23:56:11.361Z,12.10
2022-12-31T23:58:44.934Z,12.20
